createdAt,value
2022-11-29T00:00:40.403Z,102495.63
2022-11-29T00:01:43.782Z,102495.63
2022-11-29T00:02:47.109Z,102494.03
2022-11-29T00:03:50.596Z,102495.00
2022-11-29T00:04:54.094Z,102490.72
2022-11-29T00:05:57.282Z,102493.41
2022-11-29T00:07:00.476Z,102493.50
2022-11-29T00:08:03.657Z,102500.70
2022-11-29T00:09:10.966Z,102496.19
2022-11-29T00:10:14.158Z,102498.02
2022-11-29T00:11:38.315Z,102490.92
2022-11-29T00:12:41.467Z,102492.64
2022-11-29T00:13:44.637Z,102493.70
2022-11-29T00:14:47.863Z,102489.42
2022-11-29T00:15:50.968Z,102492.31
2022-11-29T00:16:58.619Z,102489.62
2022-11-29T00:18:01.838Z,102488.89
2022-11-29T00:19:05.029Z,102479.11
2022-11-29T00:20:10.224Z,102493.41
2022-11-29T00:21:13.417Z,102485.34
2022-11-29T00:22:16.493Z,102488.89
2022-11-29T00:23:19.654Z,102492.45
2022-11-29T00:24:22.946Z,102488.03
2022-11-29T00:25:26.668Z,102484.25
2022-11-29T00:26:29.780Z,102497.59
2022-11-29T00:27:33.675Z,102489.52
2022-11-29T00:28:37.635Z,102490.48
2022-11-29T00:29:40.802Z,102496.83
2022-11-29T00:30:43.930Z,102489.00
2022-11-29T00:31:47.210Z,102495.43
2022-11-29T00:32:50.275Z,102493.73
2022-11-29T00:33:53.782Z,102493.73
2022-11-29T00:34:59.518Z,102489.33
2022-11-29T00:36:01.930Z,102489.23
2022-11-29T00:37:05.033Z,102490.92
2022-11-29T00:38:08.228Z,102484.58
2022-11-29T00:39:12.223Z,102486.30
2022-11-29T00:40:15.459Z,102477.37
2022-11-29T00:41:18.916Z,102475.79
2022-11-29T00:42:22.086Z,102481.99
2022-11-29T00:43:25.166Z,102476.62
2022-11-29T00:44:28.308Z,102479.31
2022-11-29T00:45:31.362Z,102479.44
2022-11-29T00:46:34.466Z,102475.98
2022-11-29T00:47:37.624Z,102474.40
2022-11-29T00:48:40.801Z,102470.95
2022-11-29T00:49:43.923Z,102481.80
2022-11-29T00:50:46.976Z,102469.45
2022-11-29T00:51:50.224Z,102472.23
2022-11-29T00:52:53.278Z,102476.66
2022-11-29T00:53:56.358Z,102485.67
2022-11-29T00:54:59.527Z,102478.47
2022-11-29T00:56:03.948Z,102476.84
2022-11-29T00:57:07.395Z,102475.98
2022-11-29T00:58:10.686Z,102470.84
2022-11-29T00:59:13.881Z,102471.80
2022-11-29T01:00:18.608Z,102474.72
2022-11-29T01:01:21.843Z,102474.92
2022-11-29T01:02:25.346Z,102475.15
2022-11-29T01:03:28.709Z,102483.30
2022-11-29T01:04:31.894Z,102475.24
2022-11-29T01:05:35.302Z,102475.34
2022-11-29T01:06:38.639Z,102473.84
2022-11-29T01:07:41.953Z,102473.94
2022-11-29T01:08:45.930Z,102483.95
2022-11-29T01:09:49.153Z,102480.50
2022-11-29T01:11:04.562Z,102481.59
2022-11-29T01:12:07.856Z,102479.86
2022-11-29T01:13:11.766Z,102484.47
2022-11-29T01:14:14.981Z,102480.06
2022-11-29T01:15:18.178Z,102477.50
2022-11-29T01:16:21.989Z,102481.88
2022-11-29T01:17:25.256Z,102479.96
2022-11-29T01:18:29.969Z,102481.59
2022-11-29T01:19:33.064Z,102474.36
2022-11-29T01:20:36.267Z,102472.44
2022-11-29T01:21:39.563Z,102478.58
2022-11-29T02:06:32.720Z,102495.92
2022-11-29T02:07:36.307Z,102481.88
2022-11-29T02:08:42.245Z,102491.22
2022-11-29T02:09:45.329Z,102494.36
2022-11-29T02:11:00.584Z,102496.00
2022-11-29T02:12:40.458Z,102493.11
2022-11-29T02:13:59.133Z,102485.71
2022-11-29T02:15:08.619Z,102488.30
2022-11-29T02:16:27.423Z,102484.66
2022-11-29T02:17:39.752Z,102485.53
2022-11-29T02:18:58.165Z,102483.59
2022-11-29T02:20:36.379Z,102489.72
2022-11-29T02:23:23.891Z,102477.55
2022-11-29T02:24:30.513Z,102486.27
2022-11-29T02:25:59.625Z,102484.45
2022-11-29T02:27:24.125Z,102485.22
2022-11-29T02:28:33.770Z,102481.68
2022-11-29T02:29:56.900Z,102480.81
2022-11-29T02:31:15.416Z,102478.99
2022-11-29T02:32:55.316Z,102484.27
2022-11-29T02:34:10.857Z,102485.99
2022-11-29T02:35:38.782Z,102485.00
2022-11-29T02:37:11.432Z,102477.83
2022-11-29T02:38:31.257Z,102477.09
2022-11-29T02:39:40.948Z,102473.63
2022-11-29T02:40:47.565Z,102470.30
2022-11-29T02:42:14.970Z,102478.44
2022-11-29T02:43:21.597Z,102477.58
2022-11-29T02:45:42.908Z,102478.69
2022-11-29T02:46:47.665Z,102477.58
2022-11-29T02:47:54.366Z,102475.75
2022-11-29T02:49:16.213Z,102481.34
2022-11-29T02:50:54.462Z,102480.56
2022-11-29T02:52:04.136Z,102478.84
2022-11-29T02:53:36.651Z,102486.88
2022-11-29T02:54:46.787Z,102487.83
2022-11-29T02:55:57.018Z,102486.23
2022-11-29T02:57:03.783Z,102480.96
2022-11-29T02:58:13.231Z,102478.28
2022-11-29T02:59:28.770Z,102482.69
2022-11-29T03:00:34.946Z,102485.28
2022-11-29T03:01:59.651Z,102488.82
2022-11-29T03:03:29.128Z,102485.28
2022-11-29T03:04:38.607Z,102486.14
2022-11-29T03:05:51.353Z,102486.97
2022-11-29T03:07:00.811Z,102491.38
2022-11-29T03:08:19.495Z,102494.06
2022-11-29T03:09:26.246Z,102491.29
2022-11-29T03:10:50.839Z,102487.66
2022-11-29T03:11:57.638Z,102492.06
2022-11-29T03:13:04.389Z,102489.26
2022-11-29T03:14:26.322Z,102490.03
2022-11-29T03:15:38.078Z,102495.30
2022-11-29T03:17:07.395Z,102502.48
2022-11-29T03:18:32.025Z,102497.98
2022-11-29T03:19:47.412Z,102499.80
2022-11-29T03:21:13.764Z,102500.75
2022-11-29T03:22:38.278Z,102507.84
2022-11-29T03:23:50.393Z,102508.70
2022-11-29T03:24:57.141Z,102514.81
2022-11-29T03:26:06.844Z,102508.50
2022-11-29T03:27:13.508Z,102520.95
2022-11-29T03:28:26.182Z,102520.00
2022-11-29T03:29:44.935Z,102524.41
2022-11-29T03:30:57.811Z,102516.23
2022-11-29T03:32:10.141Z,102525.92
2022-11-29T03:33:25.999Z,102517.87
2022-11-29T03:34:56.945Z,102526.78
2022-11-29T03:36:03.113Z,102523.14
2022-11-29T03:37:21.962Z,102523.23
2022-11-29T03:38:43.086Z,102530.42
2022-11-29T03:39:50.678Z,102523.33
2022-11-29T03:41:06.551Z,102526.97
2022-11-29T03:42:13.318Z,102527.27
2022-11-29T03:43:29.193Z,102537.34
2022-11-29T03:44:35.957Z,102532.07
2022-11-29T03:45:42.724Z,102539.25
2022-11-29T03:47:03.999Z,102544.53
2022-11-29T03:48:13.385Z,102543.58
2022-11-29T03:49:29.132Z,102540.03
2022-11-29T03:50:41.720Z,102541.84
2022-11-29T03:52:09.461Z,102540.12
2022-11-29T03:53:18.893Z,102549.12
2022-11-29T03:54:34.569Z,102545.48
2022-11-29T03:55:50.112Z,102541.07
2022-11-29T03:56:53.936Z,102543.88
2022-11-29T03:58:35.500Z,102542.14
2022-11-29T03:59:45.285Z,102547.52
2022-11-29T04:00:52.053Z,102545.88
2022-11-29T04:02:07.747Z,102539.77
2022-11-29T04:03:29.353Z,102545.96
2022-11-29T04:04:38.745Z,102537.17
2022-11-29T04:05:54.679Z,102545.22
2022-11-29T04:07:21.183Z,102546.09
2022-11-29T04:08:47.557Z,102551.53
2022-11-29T04:10:19.648Z,102539.17
2022-11-29T04:11:55.222Z,102534.89
2022-11-29T04:13:25.925Z,102535.84
2022-11-29T04:14:51.045Z,102539.69
2022-11-29T04:16:18.798Z,102546.95
2022-11-29T04:17:48.274Z,102544.27
2022-11-29T04:19:17.698Z,102547.81
2022-11-29T04:20:48.491Z,102538.99
2022-11-29T04:22:10.520Z,102534.62
2022-11-29T04:23:50.518Z,102539.30
2022-11-29T04:24:57.279Z,102538.64
2022-11-29T04:26:18.852Z,102539.67
2022-11-29T04:27:43.550Z,102538.94
2022-11-29T04:29:17.588Z,102541.70
2022-11-29T04:30:25.573Z,102547.15
2022-11-29T04:31:38.322Z,102540.92
2022-11-29T04:33:03.186Z,102544.59
2022-11-29T04:34:21.964Z,102548.10
2022-11-29T04:35:54.449Z,102550.90
2022-11-29T04:37:06.765Z,102550.78
2022-11-29T04:38:28.561Z,102555.31
2022-11-29T04:39:49.871Z,102558.82
2022-11-29T04:41:13.095Z,102557.12
2022-11-29T04:42:28.877Z,102554.33
2022-11-29T04:43:44.551Z,102556.92
2022-11-29T04:44:57.219Z,102552.51
2022-11-29T04:46:24.904Z,102555.19
2022-11-29T04:47:37.617Z,102555.09
2022-11-29T04:49:09.675Z,102555.02
2022-11-29T04:50:16.306Z,102561.23
2022-11-29T04:51:34.530Z,102553.20
2022-11-29T04:52:56.249Z,102560.38
2022-11-29T04:54:08.719Z,102563.14
2022-11-29T04:55:33.053Z,102564.00
2022-11-29T04:56:57.916Z,102567.55
2022-11-29T04:58:13.318Z,102575.50
2022-11-29T04:59:32.103Z,102570.23
2022-11-29T05:00:38.761Z,102578.19
2022-11-29T05:01:48.450Z,102580.00
2022-11-29T05:03:04.354Z,102573.77
2022-11-29T05:04:16.910Z,102580.09
2022-11-29T05:05:24.031Z,102570.41
2022-11-29T05:06:36.599Z,102579.52
2022-11-29T05:07:46.007Z,102577.78
2022-11-29T05:08:55.441Z,102574.33
2022-11-29T05:10:23.328Z,102578.82
2022-11-29T05:11:36.087Z,102590.41
2022-11-29T05:12:59.264Z,102581.50
2022-11-29T05:14:34.517Z,102584.09
2022-11-29T05:15:44.166Z,102594.81
2022-11-29T05:16:56.878Z,102598.44
2022-11-29T05:18:03.494Z,102589.54
2022-11-29T05:19:36.992Z,102589.54
2022-11-29T05:21:02.024Z,102602.11
2022-11-29T05:22:43.366Z,102609.28
2022-11-29T05:24:08.065Z,102598.73
2022-11-29T05:25:23.712Z,102611.38
2022-11-29T05:26:42.410Z,102613.20
2022-11-29T05:28:09.792Z,102612.33
2022-11-29T05:29:23.249Z,102607.06
2022-11-29T05:30:29.911Z,102618.72
2022-11-29T05:31:39.649Z,102619.59
2022-11-29T05:33:01.511Z,102618.64
2022-11-29T05:34:23.384Z,102615.88
2022-11-29T05:35:48.280Z,102619.42
2022-11-29T05:37:00.775Z,102624.86
2022-11-29T05:38:25.564Z,102634.72
2022-11-29T05:39:41.037Z,102641.80
2022-11-29T05:40:47.803Z,102640.08
2022-11-29T05:42:06.585Z,102641.89
2022-11-29T05:43:29.979Z,102648.20
2022-11-29T05:44:45.884Z,102654.42
2022-11-29T05:46:01.820Z,102647.45
2022-11-29T05:47:09.451Z,102649.27
2022-11-29T05:48:44.780Z,102647.62
2022-11-29T05:50:11.263Z,102655.66
2022-11-29T05:51:38.450Z,102655.66
2022-11-29T05:53:06.170Z,102661.96
2022-11-29T05:54:18.659Z,102667.44
2022-11-29T05:55:31.436Z,102672.01
2022-11-29T05:56:56.511Z,102668.47
2022-11-29T05:58:14.885Z,102669.33
2022-11-29T05:59:27.419Z,102669.33
2022-11-29T06:00:40.000Z,102671.14
2022-11-29T06:02:21.394Z,102675.55
2022-11-29T06:03:43.267Z,102676.42
2022-11-29T06:05:08.078Z,102678.23
2022-11-29T06:06:29.476Z,102671.14
2022-11-29T06:07:39.001Z,102676.58
2022-11-29T06:09:08.440Z,102681.08
2022-11-29T06:10:18.144Z,102679.27
2022-11-29T06:11:31.053Z,102671.23
2022-11-29T06:12:35.465Z,102681.86
2022-11-29T06:13:58.643Z,102682.72
2022-11-29T06:15:30.882Z,102684.45
2022-11-29T06:16:55.614Z,102686.19
2022-11-29T06:18:08.401Z,102684.45
2022-11-29T06:19:38.923Z,102685.32
2022-11-29T06:21:00.743Z,102683.59
2022-11-29T06:22:39.309Z,102690.77
2022-11-29T06:24:02.424Z,102690.84
2022-11-29T06:25:09.176Z,102693.52
2022-11-29T06:26:40.433Z,102694.47
2022-11-29T06:28:09.471Z,102689.03
2022-11-29T06:29:36.135Z,102689.81
2022-11-29T06:32:03.056Z,102688.11
2022-11-29T06:33:09.686Z,102679.96
2022-11-29T06:34:30.508Z,102681.58
2022-11-29T06:35:36.644Z,102685.05
2022-11-29T06:36:59.663Z,102680.47
2022-11-29T06:38:17.616Z,102680.47
2022-11-29T06:39:20.992Z,102683.03
2022-11-29T06:40:24.673Z,102676.14
2022-11-29T06:41:28.160Z,102675.27
2022-11-29T06:42:31.252Z,102677.95
2022-11-29T06:43:34.772Z,102678.73
2022-11-29T06:44:38.282Z,102671.56
2022-11-29T06:45:44.907Z,102668.02
2022-11-29T06:46:57.500Z,102673.17
2022-11-29T06:48:06.506Z,102673.09
2022-11-29T06:49:15.900Z,102674.70
2022-11-29T06:50:51.307Z,102675.49
2022-11-29T06:52:03.991Z,102678.09
2022-11-29T06:53:16.314Z,102667.45
2022-11-29T06:54:41.175Z,102672.73
2022-11-29T06:55:50.505Z,102673.48
2022-11-29T06:57:03.311Z,102676.07
2022-11-29T06:58:12.921Z,102664.41
2022-11-29T06:59:34.696Z,102667.95
2022-11-29T07:00:56.533Z,102667.00
2022-11-29T07:02:18.424Z,102669.67
2022-11-29T07:03:47.751Z,102666.22
2022-11-29T07:04:54.384Z,102670.80
2022-11-29T07:05:58.360Z,102663.73
2022-11-29T07:07:01.763Z,102662.75
2022-11-29T07:08:08.521Z,102664.48
2022-11-29T07:09:17.839Z,102661.72
2022-11-29T07:10:21.651Z,102663.45
2022-11-29T07:11:25.133Z,102662.59
2022-11-29T07:12:28.552Z,102667.86
2022-11-29T07:13:31.944Z,102667.75
2022-11-29T07:14:35.774Z,102671.13
2022-11-29T07:15:42.392Z,102670.05
2022-11-29T07:16:53.161Z,102669.11
2022-11-29T07:18:06.331Z,102664.61
2022-11-29T07:19:24.794Z,102667.09
2022-11-29T07:20:47.885Z,102668.73
2022-11-29T07:22:27.921Z,102672.08
2022-11-29T07:23:50.578Z,102661.93
2022-11-29T07:25:00.283Z,102661.76
2022-11-29T07:26:32.815Z,102662.50
2022-11-29T07:27:47.910Z,102670.46
2022-11-29T07:28:57.624Z,102671.33
2022-11-29T07:30:16.323Z,102670.37
2022-11-29T07:31:38.374Z,102659.56
2022-11-29T07:33:01.825Z,102658.49
2022-11-29T07:34:14.611Z,102661.95
2022-11-29T07:35:21.384Z,102655.43
2022-11-29T07:36:42.978Z,102670.48
2022-11-29T07:38:21.248Z,102665.00
2022-11-29T07:39:44.336Z,102659.34
2022-11-29T07:41:00.081Z,102662.80
2022-11-29T07:42:06.839Z,102656.57
2022-11-29T07:43:22.636Z,102662.02
2022-11-29T07:44:32.089Z,102662.89
2022-11-29T07:45:38.189Z,102659.34
2022-11-29T07:46:41.550Z,102654.84
2022-11-29T07:47:45.784Z,102657.44
2022-11-29T07:48:49.001Z,102647.58
2022-11-29T07:49:52.232Z,102649.39
2022-11-29T07:50:56.363Z,102657.34
2022-11-29T07:51:59.551Z,102651.12
2022-11-29T07:53:03.633Z,102651.98
2022-11-29T07:54:06.858Z,102655.41
2022-11-29T07:55:18.721Z,102661.55
2022-11-29T07:56:19.609Z,102648.05
2022-11-29T07:57:22.856Z,102656.02
2022-11-29T07:58:25.991Z,102655.02
2022-11-29T07:59:29.173Z,102655.80
2022-11-29T08:00:32.313Z,102657.53
2022-11-29T08:01:35.516Z,102649.48
2022-11-29T08:02:38.829Z,102658.39
2022-11-29T08:03:42.269Z,102657.44
2022-11-29T08:04:45.641Z,102661.82
2022-11-29T08:05:48.964Z,102667.19
2022-11-29T08:06:52.063Z,102660.95
2022-11-29T08:07:55.441Z,102652.91
2022-11-29T08:08:59.223Z,102653.77
2022-11-29T08:10:03.573Z,102656.58
2022-11-29T08:11:11.284Z,102653.77
2022-11-29T08:12:14.476Z,102660.00
2022-11-29T08:13:21.546Z,102652.91
2022-11-29T08:14:24.634Z,102648.41
2022-11-29T08:15:28.121Z,102651.87
2022-11-29T08:16:32.043Z,102651.87
2022-11-29T08:17:37.168Z,102648.23
2022-11-29T08:18:40.271Z,102645.55
2022-11-29T08:19:43.447Z,102644.47
2022-11-29T08:20:46.561Z,102639.02
2022-11-29T08:21:50.949Z,102642.34
2022-11-29T08:22:58.816Z,102630.57
2022-11-29T08:24:02.209Z,102621.35
2022-11-29T08:25:06.511Z,102627.49
2022-11-29T08:26:09.627Z,102625.58
2022-11-29T08:27:12.694Z,102624.59
2022-11-29T08:28:15.785Z,102624.59
2022-11-29T08:29:19.041Z,102630.83
2022-11-29T08:30:23.020Z,102625.37
2022-11-29T08:31:26.179Z,102629.78
2022-11-29T08:32:29.336Z,102627.84
2022-11-29T08:33:35.382Z,102629.56
2022-11-29T08:34:38.478Z,102617.78
2022-11-29T08:35:41.658Z,102622.29
2022-11-29T08:36:44.930Z,102623.15
2022-11-29T08:37:48.194Z,102621.42
2022-11-29T08:38:55.822Z,102627.66
2022-11-29T08:39:57.734Z,102615.19
2022-11-29T08:41:03.303Z,102619.60
2022-11-29T08:42:06.515Z,102617.66
2022-11-29T08:43:09.594Z,102619.39
2022-11-29T08:44:12.673Z,102621.11
2022-11-29T08:45:15.762Z,102620.06
2022-11-29T08:46:19.202Z,102612.02
2022-11-29T08:47:37.289Z,102611.89
2022-11-29T08:48:40.470Z,102613.62
2022-11-29T08:50:01.561Z,102609.98
2022-11-29T08:51:06.074Z,102611.70
2022-11-29T08:52:27.523Z,102609.88
2022-11-29T08:53:42.940Z,102606.34
2022-11-29T08:54:46.227Z,102600.97
2022-11-29T08:55:49.910Z,102600.01
2022-11-29T08:57:37.347Z,102610.75
2022-11-29T08:58:04.098Z,102598.28
2022-11-29T08:59:07.211Z,102600.01
2022-11-29T09:00:11.294Z,102598.28
2022-11-29T09:01:17.235Z,102599.14
2022-11-29T09:02:20.979Z,102594.64
2022-11-29T09:03:42.165Z,102596.33
2022-11-29T09:04:45.554Z,102598.83
2022-11-29T09:05:48.883Z,102596.92
2022-11-29T09:06:52.109Z,102600.44
2022-11-29T09:07:55.468Z,102594.11
2022-11-29T09:09:00.017Z,102581.45
2022-11-29T09:10:06.882Z,102589.51
2022-11-29T09:11:14.440Z,102583.18
2022-11-29T09:12:17.655Z,102595.52
2022-11-29T09:13:20.839Z,102581.14
2022-11-29T09:14:24.060Z,102582.86
2022-11-29T09:15:27.267Z,102589.84
2022-11-29T09:16:33.685Z,102571.91
2022-11-29T09:17:36.955Z,102576.31
2022-11-29T09:18:41.253Z,102579.77
2022-11-29T09:19:44.414Z,102574.17
2022-11-29T09:20:47.569Z,102566.89
2022-11-29T09:21:51.045Z,102570.44
2022-11-29T09:22:54.288Z,102570.34
2022-11-29T09:24:00.112Z,102566.66
2022-11-29T09:25:03.582Z,102563.98
2022-11-29T09:26:07.892Z,102563.98
2022-11-29T09:27:11.158Z,102567.52
2022-11-29T09:28:14.255Z,102564.84
2022-11-29T09:29:17.634Z,102564.84
2022-11-29T09:30:23.766Z,102561.30
2022-11-29T09:31:26.994Z,102561.30
2022-11-29T09:32:31.075Z,102572.80
2022-11-29T09:33:34.789Z,102567.34
2022-11-29T09:34:37.990Z,102565.52
2022-11-29T09:35:41.291Z,102560.88
2022-11-29T09:36:44.784Z,102561.73
2022-11-29T09:37:47.975Z,102560.69
2022-11-29T09:38:51.288Z,102557.00
2022-11-29T09:39:54.415Z,102560.45
2022-11-29T09:41:10.379Z,102555.84
2022-11-29T09:42:29.106Z,102553.90
2022-11-29T09:43:41.985Z,102549.19
2022-11-29T09:45:06.729Z,102548.23
2022-11-29T09:46:15.534Z,102548.10
2022-11-29T09:47:41.671Z,102549.83
2022-11-29T09:49:00.586Z,102547.14
2022-11-29T09:50:13.333Z,102550.69
2022-11-29T09:51:44.427Z,102553.38
2022-11-29T09:52:56.948Z,102554.24
2022-11-29T09:54:21.898Z,102549.73
2022-11-29T09:55:42.411Z,102547.91
2022-11-29T09:56:48.830Z,102547.05
2022-11-29T09:57:55.109Z,102554.24
2022-11-29T09:59:07.747Z,102550.59
2022-11-29T10:00:21.727Z,102551.45
2022-11-29T10:01:28.484Z,102557.70
2022-11-29T10:02:38.300Z,102551.33
2022-11-29T10:03:48.040Z,102555.73
2022-11-29T10:05:00.583Z,102553.05
2022-11-29T10:06:26.967Z,102555.55
2022-11-29T10:07:42.845Z,102556.28
2022-11-29T10:08:49.583Z,102563.38
2022-11-29T10:10:20.524Z,102548.12
2022-11-29T10:11:27.751Z,102551.67
2022-11-29T10:12:40.633Z,102556.28
2022-11-29T10:13:47.377Z,102543.80
2022-11-29T10:14:57.012Z,102544.80
2022-11-29T10:16:20.228Z,102544.80
2022-11-29T10:17:29.868Z,102539.30
2022-11-29T10:18:51.540Z,102539.30
2022-11-29T10:20:04.009Z,102541.87
2022-11-29T10:21:16.534Z,102538.23
2022-11-29T10:23:55.012Z,102535.42
2022-11-29T10:25:01.751Z,102537.04
2022-11-29T10:26:06.991Z,102545.10
2022-11-29T10:27:16.816Z,102531.56
2022-11-29T10:28:23.378Z,102536.84
2022-11-29T10:29:26.493Z,102537.58
2022-11-29T10:30:32.096Z,102542.85
2022-11-29T10:31:39.964Z,102532.00
2022-11-29T10:32:46.150Z,102527.36
2022-11-29T10:33:49.830Z,102521.02
2022-11-29T10:34:53.222Z,102527.16
2022-11-29T10:35:59.003Z,102529.61
2022-11-29T10:37:02.203Z,102524.23
2022-11-29T10:38:36.013Z,102525.96
2022-11-29T10:39:29.969Z,102530.38
2022-11-29T10:40:36.593Z,102527.69
2022-11-29T10:41:39.707Z,102528.41
2022-11-29T10:42:48.993Z,102534.55
2022-11-29T10:43:54.587Z,102534.45
2022-11-29T10:44:59.491Z,102534.35
2022-11-29T10:46:04.276Z,102537.77
2022-11-29T10:47:10.907Z,102533.16
2022-11-29T10:48:16.331Z,102533.89
2022-11-29T10:49:22.816Z,102537.34
2022-11-29T10:50:29.041Z,102535.41
2022-11-29T10:51:33.021Z,102538.09
2022-11-29T10:52:36.835Z,102534.45
2022-11-29T10:53:40.237Z,102537.00
2022-11-29T10:54:45.497Z,102542.28
2022-11-29T10:55:52.662Z,102539.48
2022-11-29T10:56:58.661Z,102535.83
2022-11-29T10:58:14.339Z,102541.08
2022-11-29T10:59:23.380Z,102535.83
2022-11-29T11:00:27.887Z,102529.45
2022-11-29T11:01:34.764Z,102533.97
2022-11-29T11:02:38.213Z,102533.97
2022-11-29T11:03:43.696Z,102526.91
2022-11-29T11:04:47.672Z,102530.55
2022-11-29T11:06:06.404Z,102528.73
2022-11-29T11:07:13.095Z,102529.69
2022-11-29T11:08:19.023Z,102533.25
2022-11-29T11:09:34.765Z,102534.97
2022-11-29T11:10:38.804Z,102525.08
2022-11-29T11:11:46.873Z,102533.97
2022-11-29T11:13:08.513Z,102536.66
2022-11-29T11:14:26.656Z,102529.45
2022-11-29T11:15:31.642Z,102537.42
2022-11-29T11:16:37.606Z,102524.84
2022-11-29T11:17:41.620Z,102523.88
2022-11-29T11:18:46.540Z,102523.77
2022-11-29T11:20:10.686Z,102521.08
2022-11-29T11:21:17.200Z,102519.22
2022-11-29T11:22:22.419Z,102521.19
2022-11-29T11:23:28.449Z,102524.84
2022-11-29T11:24:34.823Z,102524.84
2022-11-29T11:25:39.640Z,102529.25
2022-11-29T11:26:44.699Z,102529.25
2022-11-29T11:27:48.003Z,102527.42
2022-11-29T11:28:57.756Z,102521.08
2022-11-29T11:30:02.088Z,102524.60
2022-11-29T11:31:07.935Z,102522.77
2022-11-29T11:32:19.650Z,102529.88
2022-11-29T11:33:28.775Z,102530.84
2022-11-29T11:34:36.926Z,102528.05
2022-11-29T11:35:40.575Z,102530.74
2022-11-29T11:36:43.765Z,102522.67
2022-11-29T11:37:50.420Z,102526.33
2022-11-29T11:38:56.508Z,102516.53
2022-11-29T11:40:02.684Z,102525.47
2022-11-29T11:41:26.319Z,102530.74
2022-11-29T11:42:39.046Z,102531.61
2022-11-29T11:43:44.733Z,102530.54
2022-11-29T11:44:51.677Z,102527.72
2022-11-29T11:45:55.118Z,102526.75
2022-11-29T11:47:00.479Z,102524.81
2022-11-29T11:48:17.605Z,102528.23
2022-11-29T11:49:35.195Z,102528.13
2022-11-29T11:50:52.338Z,102523.61
2022-11-29T11:51:56.763Z,102525.34
2022-11-29T11:53:04.341Z,102531.69
2022-11-29T11:54:11.115Z,102521.99
2022-11-29T11:55:38.408Z,102522.98
2022-11-29T11:56:41.625Z,102524.81
2022-11-29T11:57:45.029Z,102527.51
2022-11-29T11:58:51.774Z,102522.13
2022-11-29T12:00:00.709Z,102521.99
2022-11-29T12:01:11.682Z,102517.47
2022-11-29T12:02:30.544Z,102515.64
2022-11-29T12:03:49.388Z,102520.92
2022-11-29T12:04:55.857Z,102513.72
2022-11-29T12:06:02.639Z,102523.51
2022-11-29T12:07:12.251Z,102514.58
2022-11-29T12:08:16.379Z,102519.09
2022-11-29T12:09:48.520Z,102525.44
2022-11-29T12:10:55.173Z,102520.16
2022-11-29T12:12:04.862Z,102525.78
2022-11-29T12:13:17.621Z,102524.06
2022-11-29T12:14:24.399Z,102525.98
2022-11-29T12:15:31.186Z,102522.47
2022-11-29T12:16:37.722Z,102526.98
2022-11-29T12:17:53.067Z,102527.95
2022-11-29T12:19:02.298Z,102526.98
2022-11-29T12:20:09.565Z,102532.37
2022-11-29T12:21:17.782Z,102532.47
2022-11-29T12:22:24.515Z,102529.78
2022-11-29T12:23:34.111Z,102531.61
2022-11-29T12:24:44.335Z,102536.98
2022-11-29T12:26:34.519Z,102526.23
2022-11-29T12:27:20.456Z,102530.74
2022-11-29T12:28:27.064Z,102528.16
2022-11-29T12:29:33.218Z,102530.84
2022-11-29T12:30:38.815Z,102539.91
2022-11-29T12:32:00.397Z,102533.67
2022-11-29T12:33:09.763Z,102532.80
2022-11-29T12:34:36.371Z,102528.39
2022-11-29T12:35:57.988Z,102531.08
2022-11-29T12:37:24.244Z,102533.88
2022-11-29T12:38:39.982Z,102542.91
2022-11-29T12:40:06.383Z,102538.63
2022-11-29T12:41:29.722Z,102543.14
2022-11-29T12:42:45.514Z,102547.66
2022-11-29T14:24:40.039Z,102586.31
2022-11-29T14:25:55.676Z,102583.72
2022-11-29T14:28:26.212Z,102587.34
2022-11-29T14:29:54.405Z,102588.80
2022-11-29T14:31:03.029Z,102597.50
2022-11-29T14:32:09.836Z,102591.09
2022-11-29T14:33:22.565Z,102600.66
2022-11-29T14:34:29.137Z,102597.89
2022-11-29T14:35:41.600Z,102604.86
2022-11-29T14:36:48.353Z,102598.46
2022-11-29T14:38:13.216Z,102605.44
2022-11-29T14:39:44.332Z,102593.66
2022-11-29T14:41:00.133Z,102606.95
2022-11-29T14:42:21.529Z,102605.91
2022-11-29T14:43:28.284Z,102597.86
2022-11-29T14:44:33.202Z,102603.14
2022-11-29T14:45:36.502Z,102601.32
2022-11-29T14:46:40.287Z,102598.64
2022-11-29T14:47:50.064Z,102595.83
2022-11-29T14:48:59.572Z,102601.11
2022-11-29T14:50:07.493Z,102591.25
2022-11-29T14:51:17.090Z,102602.84
2022-11-29T14:52:41.865Z,102604.56
2022-11-29T14:53:47.528Z,102601.77
2022-11-29T14:54:59.724Z,102605.31
2022-11-29T14:56:32.381Z,102598.91
2022-11-29T14:58:00.074Z,102603.31
2022-11-29T14:59:38.483Z,102604.18
2022-11-29T15:00:51.771Z,102600.63
2022-11-29T15:01:55.843Z,102601.49
2022-11-29T15:03:02.634Z,102599.77
2022-11-29T15:04:07.854Z,102599.77
2022-11-29T15:05:31.496Z,102606.00
2022-11-29T15:06:43.291Z,102601.58
2022-11-29T15:07:56.872Z,102605.12
2022-11-29T15:09:15.889Z,102613.27
2022-11-29T15:10:25.242Z,102603.49
2022-11-29T15:11:50.071Z,102610.67
2022-11-29T15:12:53.499Z,102613.48
2022-11-29T15:14:08.722Z,102607.34
2022-11-29T15:15:24.187Z,102606.47
2022-11-29T15:16:45.996Z,102612.79
2022-11-29T15:18:04.550Z,102604.00
2022-11-29T15:19:30.753Z,102612.05
2022-11-29T15:20:54.969Z,102618.45
2022-11-29T15:22:20.745Z,102610.50
2022-11-29T15:23:23.894Z,102608.02
2022-11-29T15:24:28.932Z,102610.91
2022-11-29T15:25:33.357Z,102613.69
2022-11-29T15:26:36.619Z,102620.86
2022-11-29T15:27:57.114Z,102618.27
2022-11-29T15:29:14.340Z,102617.41
2022-11-29T15:30:20.404Z,102613.86
2022-11-29T15:31:24.223Z,102618.36
2022-11-29T15:32:32.205Z,102619.43
2022-11-29T15:33:43.658Z,102623.93
2022-11-29T15:34:50.971Z,102615.89
2022-11-29T15:35:56.703Z,102615.89
2022-11-29T15:37:00.591Z,102617.70
2022-11-29T15:38:04.174Z,102619.43
2022-11-29T15:39:11.032Z,102617.61
2022-11-29T15:40:27.563Z,102613.20
2022-11-29T15:41:33.865Z,102623.93
2022-11-29T15:42:46.593Z,102613.29
2022-11-29T15:43:53.313Z,102618.77
2022-11-29T15:44:56.537Z,102622.41
2022-11-29T15:46:00.703Z,102620.67
2022-11-29T15:47:22.524Z,102619.72
2022-11-29T15:48:31.291Z,102617.05
2022-11-29T15:49:35.484Z,102612.63
2022-11-29T15:50:40.974Z,102614.53
2022-11-29T15:51:48.835Z,102616.35
2022-11-29T15:52:54.930Z,102617.42
2022-11-29T15:54:12.088Z,102615.70
2022-11-29T15:55:10.336Z,102612.23
2022-11-29T15:56:17.013Z,102618.58
2022-11-29T15:57:26.788Z,102623.08
2022-11-29T15:58:33.191Z,102622.22
2022-11-29T15:59:48.796Z,102621.44
2022-11-29T16:00:52.909Z,102611.66
2022-11-29T16:01:59.238Z,102625.06
2022-11-29T16:03:04.918Z,102629.68
2022-11-29T16:04:11.962Z,102622.59
2022-11-29T16:05:24.526Z,102626.22
2022-11-29T16:06:42.010Z,102627.17
2022-11-29T16:07:47.116Z,102634.34
2022-11-29T16:08:51.719Z,102630.80